createdAt,value
2017-06-23T00:02:08.483Z,22.50
2017-06-23T00:04:36.855Z,22.50
2017-06-23T00:07:05.191Z,22.50
2017-06-23T00:09:33.480Z,22.50
2017-06-23T00:12:01.811Z,22.50
2017-06-23T00:14:30.872Z,22.50
2017-06-23T00:16:59.923Z,22.50
2017-06-23T00:19:28.699Z,22.50
2017-06-23T00:21:57.382Z,22.50
2017-06-23T00:26:55.795Z,22.50
2017-06-23T00:29:24.095Z,22.50
2017-06-23T00:31:52.408Z,22.50
2017-06-23T00:36:50.267Z,22.50
2017-06-23T00:39:18.555Z,22.50
2017-06-23T00:41:47.046Z,22.40
2017-06-23T00:44:16.474Z,22.30
2017-06-23T00:46:45.160Z,22.30
2017-06-23T00:49:13.518Z,22.30
2017-06-23T00:54:11.323Z,22.20
2017-06-23T00:56:40.071Z,22.20
2017-06-23T00:59:09.168Z,22.20
2017-06-23T01:04:08.459Z,22.20
2017-06-23T01:06:37.151Z,22.20
2017-06-23T01:09:05.456Z,22.20
2017-06-23T01:11:33.796Z,22.20
2017-06-23T01:14:02.076Z,22.20
2017-06-23T01:16:30.363Z,22.30
2017-06-23T01:18:58.698Z,22.30
2017-06-23T01:21:28.131Z,22.20
2017-06-23T01:23:57.191Z,22.20
2017-06-23T01:26:27.070Z,22.20
2017-06-23T01:28:55.367Z,22.20
2017-06-23T01:31:24.840Z,22.20
2017-06-23T01:33:53.246Z,22.20
2017-06-23T01:38:51.490Z,22.10
2017-06-23T01:41:20.979Z,22.20
2017-06-23T01:43:50.031Z,22.20
2017-06-23T01:48:49.387Z,22.10
2017-06-23T01:51:17.678Z,22.20
2017-06-23T01:53:45.966Z,22.20
2017-06-23T01:56:15.438Z,22.20
2017-06-23T01:58:43.727Z,22.10
2017-06-23T02:03:42.043Z,22.10
2017-06-23T02:06:10.335Z,22.10
2017-06-23T02:08:38.661Z,22.00
2017-06-23T02:11:07.031Z,22.10
2017-06-23T02:16:05.258Z,22.10
2017-06-23T02:18:33.674Z,22.10
2017-06-23T02:21:02.755Z,22.10
2017-06-23T02:26:01.031Z,22.10
2017-06-23T02:28:29.325Z,22.10
2017-06-23T02:30:57.616Z,22.10
2017-06-23T02:33:25.960Z,22.10
2017-06-23T02:35:55.388Z,22.10
2017-06-23T02:38:25.583Z,22.00
2017-06-23T02:40:53.949Z,22.10
2017-06-23T02:43:22.298Z,22.10
2017-06-23T02:45:50.612Z,22.00
2017-06-23T02:48:20.131Z,22.00
2017-06-23T02:50:48.468Z,22.00
2017-06-23T02:53:16.783Z,22.10
2017-06-23T02:55:45.155Z,22.10
2017-06-23T02:58:13.480Z,22.00
2017-06-23T03:03:11.771Z,22.00
2017-06-23T03:05:40.828Z,22.00
2017-06-23T03:08:09.139Z,22.00
2017-06-23T03:10:38.277Z,22.00
2017-06-23T03:13:19.119Z,22.00
2017-06-23T03:15:48.383Z,22.00
2017-06-23T03:18:17.070Z,22.00
2017-06-23T03:20:45.354Z,22.00
2017-06-23T03:23:14.460Z,22.10
2017-06-23T03:25:44.255Z,22.10
2017-06-23T03:28:12.542Z,22.10
2017-06-23T03:30:42.037Z,22.10
2017-06-23T03:33:10.360Z,22.10
2017-06-23T03:35:38.678Z,22.10
2017-06-23T03:38:07.350Z,22.10
2017-06-23T03:40:35.672Z,22.00
2017-06-23T03:43:04.376Z,22.00
2017-06-23T03:45:33.493Z,22.00
2017-06-23T03:50:31.751Z,22.10
2017-06-23T03:53:00.871Z,22.10
2017-06-23T03:55:29.187Z,22.10
2017-06-23T03:57:57.478Z,22.10
2017-06-23T04:00:26.191Z,22.00
2017-06-23T04:02:55.288Z,22.00
2017-06-23T04:05:23.649Z,22.00
2017-06-23T04:07:52.023Z,21.90
2017-06-23T04:10:20.326Z,22.00
2017-06-23T04:12:48.614Z,21.90
2017-06-23T04:15:17.120Z,21.90
2017-06-23T04:17:46.553Z,21.90
2017-06-23T04:20:14.839Z,21.80
2017-06-23T04:22:43.616Z,21.90
2017-06-23T04:25:12.305Z,21.90
2017-06-23T04:27:41.391Z,21.90
2017-06-23T04:30:09.743Z,21.80
2017-06-23T04:32:38.039Z,21.80
2017-06-23T04:35:06.787Z,21.80
2017-06-23T04:37:35.134Z,21.80
2017-06-23T04:40:03.429Z,21.80
2017-06-23T04:42:31.719Z,21.80
2017-06-23T04:45:01.621Z,21.80
2017-06-23T04:47:29.907Z,21.80
2017-06-23T04:49:59.342Z,21.80
2017-06-23T04:52:30.300Z,21.70
2017-06-23T04:54:59.472Z,21.70
2017-06-23T04:57:28.172Z,21.70
2017-06-23T04:59:57.290Z,21.70
2017-06-23T05:02:26.714Z,21.70
2017-06-23T05:04:55.780Z,21.70
2017-06-23T05:09:53.812Z,21.80
2017-06-23T05:12:23.680Z,21.80
2017-06-23T05:14:52.453Z,21.80
2017-06-23T05:19:50.696Z,21.90
2017-06-23T05:22:19.831Z,21.90
2017-06-23T05:24:48.884Z,21.90
2017-06-23T05:27:17.197Z,21.90
2017-06-23T05:32:15.488Z,22.00
2017-06-23T05:34:44.559Z,22.00
2017-06-23T05:37:13.674Z,22.00
2017-06-23T05:39:41.967Z,22.00
2017-06-23T05:42:10.270Z,22.00
2017-06-23T05:44:39.507Z,22.00
2017-06-23T05:47:07.827Z,22.00
2017-06-23T05:49:36.150Z,22.10
2017-06-23T05:52:05.391Z,22.10
2017-06-23T05:54:34.489Z,22.10
2017-06-23T05:57:02.783Z,22.10
2017-06-23T05:59:32.654Z,22.10
2017-06-23T06:02:00.961Z,22.10
2017-06-23T06:04:29.651Z,22.10
2017-06-23T06:06:58.759Z,22.20
2017-06-23T06:09:27.055Z,22.20
2017-06-23T06:11:55.338Z,22.20
2017-06-23T06:14:24.388Z,22.30
2017-06-23T06:16:53.471Z,22.30
2017-06-23T06:21:52.108Z,22.40
2017-06-23T06:24:20.412Z,22.40
2017-06-23T06:26:48.709Z,22.50
2017-06-23T06:29:17.034Z,22.50
2017-06-23T06:31:46.094Z,22.60
2017-06-23T06:34:15.155Z,22.60
2017-06-23T06:36:44.250Z,22.70
2017-06-23T06:39:12.538Z,22.80
2017-06-23T06:41:40.831Z,22.90
2017-06-23T06:44:10.676Z,23.00
2017-06-23T06:46:38.978Z,23.10
2017-06-23T06:49:08.816Z,23.30
2017-06-23T06:51:37.172Z,23.30
2017-06-23T06:54:05.483Z,23.30
2017-06-23T06:56:33.805Z,23.30
2017-06-23T06:59:02.168Z,23.40
2017-06-23T07:01:31.587Z,23.40
2017-06-23T07:03:59.875Z,23.40
2017-06-23T07:08:58.507Z,23.50
2017-06-23T07:11:27.575Z,23.50
2017-06-23T07:13:55.971Z,23.50
2017-06-23T07:18:54.191Z,23.60
2017-06-23T07:21:22.537Z,23.60
2017-06-23T07:23:50.839Z,23.60
2017-06-23T07:26:20.259Z,23.70
2017-06-23T07:28:49.356Z,23.70
2017-06-23T07:31:17.642Z,23.70
2017-06-23T07:33:46.702Z,23.80
2017-06-23T07:36:15.040Z,23.80
2017-06-23T07:38:43.319Z,23.80
2017-06-23T07:43:42.306Z,23.80
2017-06-23T07:46:12.103Z,23.80
2017-06-23T07:51:10.355Z,23.90
2017-06-23T07:53:39.815Z,23.90
2017-06-23T07:56:08.900Z,24.00
2017-06-23T07:58:38.021Z,24.10
2017-06-23T08:01:07.847Z,24.20
2017-06-23T08:03:36.168Z,24.20
2017-06-23T08:06:06.021Z,24.30
2017-06-23T08:08:34.339Z,24.30
2017-06-23T08:11:02.627Z,24.30
2017-06-23T08:13:30.986Z,24.40
2017-06-23T08:15:59.559Z,24.50
2017-06-23T08:18:28.675Z,24.60
2017-06-23T08:20:57.022Z,24.60
2017-06-23T08:23:25.328Z,24.70
2017-06-23T08:25:54.402Z,24.80
2017-06-23T08:28:24.655Z,24.80
2017-06-23T08:30:54.111Z,25.00
2017-06-23T08:33:22.408Z,25.10
2017-06-23T08:35:51.596Z,25.20
2017-06-23T08:40:49.793Z,25.60
2017-06-23T08:43:18.119Z,25.80
2017-06-23T08:45:46.406Z,26.00
2017-06-23T08:48:14.695Z,26.20
2017-06-23T08:50:43.030Z,26.30
2017-06-23T08:53:11.320Z,26.30
2017-06-23T08:55:39.637Z,26.30
2017-06-23T08:58:08.368Z,26.20
2017-06-23T09:00:36.675Z,26.20
2017-06-23T09:03:05.400Z,26.10
2017-06-23T09:05:35.265Z,25.90
2017-06-23T09:15:33.989Z,25.80
2017-06-23T09:18:02.374Z,25.80
2017-06-23T09:20:30.706Z,25.70
2017-06-23T09:22:59.763Z,25.50
2017-06-23T09:25:29.560Z,25.50
2017-06-23T09:27:57.907Z,25.50
2017-06-23T09:30:26.195Z,25.60
2017-06-23T09:32:54.500Z,25.50
2017-06-23T09:35:23.233Z,25.40
2017-06-23T09:37:52.299Z,25.40
2017-06-23T09:40:21.011Z,25.40
2017-06-23T09:42:49.347Z,25.40
2017-06-23T09:45:17.636Z,25.40
2017-06-23T09:47:45.923Z,25.30
2017-06-23T09:50:15.398Z,25.40
2017-06-23T09:52:43.691Z,25.30
2017-06-23T09:55:11.971Z,25.20
2017-06-23T09:57:40.998Z,25.20
2017-06-23T10:00:09.309Z,25.10
2017-06-23T10:02:38.380Z,25.20
2017-06-23T10:05:07.526Z,25.20
2017-06-23T10:07:35.847Z,25.10
2017-06-23T10:10:04.149Z,25.10
2017-06-23T10:12:32.478Z,25.00
2017-06-23T10:15:02.271Z,25.00
2017-06-23T10:17:30.560Z,25.00
2017-06-23T10:19:59.007Z,25.00
2017-06-23T10:22:28.431Z,25.00
2017-06-23T10:24:56.719Z,25.00
2017-06-23T10:27:25.815Z,25.00
2017-06-23T10:29:55.611Z,25.00
2017-06-23T10:32:23.909Z,25.10
2017-06-23T10:34:53.402Z,25.20
2017-06-23T10:39:51.204Z,25.20
2017-06-23T10:42:20.296Z,25.30
2017-06-23T10:44:48.571Z,25.40
2017-06-23T10:47:17.251Z,25.50
2017-06-23T10:49:45.578Z,25.60
2017-06-23T10:52:13.863Z,25.60
2017-06-23T10:54:42.146Z,25.70
2017-06-23T10:57:10.778Z,25.70
2017-06-23T10:59:40.222Z,25.80
2017-06-23T11:02:08.524Z,25.90
2017-06-23T11:04:38.372Z,26.10
2017-06-23T11:07:07.071Z,26.10
2017-06-23T11:09:35.402Z,26.10
2017-06-23T11:12:05.272Z,26.20
2017-06-23T11:14:33.571Z,26.20
2017-06-23T11:17:02.639Z,26.10
2017-06-23T11:19:30.959Z,26.10
2017-06-23T11:22:00.024Z,26.20
2017-06-23T11:24:29.043Z,26.30
2017-06-23T11:29:27.278Z,26.70
2017-06-23T11:34:31.679Z,27.00
2017-06-23T11:39:29.851Z,27.30
2017-06-23T11:41:58.958Z,27.40
2017-06-23T11:44:28.012Z,27.60
2017-06-23T11:46:57.065Z,27.70
2017-06-23T11:49:25.419Z,27.90
2017-06-23T11:51:54.847Z,28.10
2017-06-23T11:56:53.215Z,28.30
2017-06-23T11:59:21.502Z,28.30
2017-06-23T12:01:49.783Z,28.30
2017-06-23T12:04:18.111Z,28.40
2017-06-23T12:06:47.155Z,28.40
2017-06-23T12:09:15.647Z,28.60
2017-06-23T12:11:45.515Z,28.80
2017-06-23T12:16:43.686Z,29.10
2017-06-23T12:21:41.515Z,29.10
2017-06-23T12:26:40.142Z,29.30
2017-06-23T12:29:08.433Z,29.30
2017-06-23T12:31:36.743Z,29.20
2017-06-23T12:36:35.077Z,29.10
2017-06-23T12:41:33.379Z,29.10
2017-06-23T12:44:02.787Z,29.20
2017-06-23T12:46:31.843Z,29.20
2017-06-23T12:49:01.311Z,29.20
2017-06-23T12:51:31.094Z,29.20
2017-06-23T12:53:59.382Z,29.30
2017-06-23T12:56:29.219Z,29.40
2017-06-23T12:58:57.495Z,29.40
2017-06-23T13:01:25.771Z,29.40
2017-06-23T13:03:54.117Z,29.50
2017-06-23T13:06:22.403Z,29.40
2017-06-23T13:08:50.687Z,29.60
2017-06-23T13:11:20.565Z,29.60
2017-06-23T13:13:48.843Z,29.60
2017-06-23T13:16:18.637Z,29.60
2017-06-23T13:21:17.227Z,29.60
2017-06-23T13:23:45.507Z,29.50
2017-06-23T13:28:45.919Z,29.40
2017-06-23T13:31:14.972Z,29.30
2017-06-23T13:33:44.952Z,29.20
2017-06-23T13:38:43.139Z,29.10
2017-06-23T13:41:11.518Z,29.00
2017-06-23T13:43:39.843Z,29.00
2017-06-23T13:48:37.710Z,29.00
2017-06-23T13:51:06.069Z,29.00
2017-06-23T13:53:34.436Z,29.10
2017-06-23T13:56:04.273Z,29.20
2017-06-23T13:58:32.551Z,29.30
2017-06-23T14:01:01.227Z,29.20
2017-06-23T14:03:30.344Z,29.30
2017-06-23T14:05:59.390Z,29.10
2017-06-23T14:08:28.438Z,29.10
2017-06-23T14:10:56.759Z,29.00
2017-06-23T14:13:25.087Z,28.90
2017-06-23T14:15:54.900Z,28.70
2017-06-23T14:18:23.235Z,28.70
2017-06-23T14:20:51.522Z,28.50
2017-06-23T14:23:19.799Z,28.50
2017-06-23T14:25:49.258Z,28.50
2017-06-23T14:28:17.544Z,28.40
2017-06-23T14:30:45.819Z,28.40
2017-06-23T14:33:14.239Z,28.20
2017-06-23T14:35:42.516Z,28.10
2017-06-23T14:38:10.787Z,28.00
2017-06-23T14:40:39.142Z,28.00
2017-06-23T14:43:08.592Z,28.00
2017-06-23T14:45:36.908Z,28.00
2017-06-23T14:48:05.269Z,27.90
2017-06-23T14:53:04.443Z,27.80
2017-06-23T14:55:32.783Z,27.80
2017-06-23T14:58:01.069Z,27.60
2017-06-23T15:00:29.347Z,27.60
2017-06-23T15:03:00.659Z,27.60
2017-06-23T15:05:28.940Z,27.50
2017-06-23T15:07:57.982Z,27.50
2017-06-23T15:10:26.705Z,27.60
2017-06-23T15:12:55.398Z,27.60
2017-06-23T15:15:23.700Z,27.60
2017-06-23T15:17:52.031Z,27.60
2017-06-23T15:20:20.307Z,27.60
2017-06-23T15:22:48.583Z,27.60
2017-06-23T15:25:16.919Z,27.50
2017-06-23T15:27:45.196Z,27.50
2017-06-23T15:30:14.982Z,27.50
2017-06-23T15:32:43.322Z,27.50
2017-06-23T15:35:12.371Z,27.50
2017-06-23T15:40:10.719Z,27.50
2017-06-23T15:42:39.016Z,27.50
2017-06-23T15:45:07.316Z,27.50
2017-06-23T15:47:37.191Z,27.50
2017-06-23T15:50:05.894Z,27.50
2017-06-23T15:52:34.562Z,27.50
2017-06-23T15:55:03.435Z,27.50
2017-06-23T15:57:31.724Z,27.50
2017-06-23T16:00:00.770Z,27.50
2017-06-23T16:02:30.259Z,27.50
2017-06-23T16:04:58.540Z,27.40
2017-06-23T16:07:26.821Z,27.40
2017-06-23T16:12:25.089Z,27.20
2017-06-23T16:14:54.148Z,27.20
2017-06-23T16:17:22.622Z,27.20
2017-06-23T16:19:50.900Z,27.10
2017-06-23T16:22:19.175Z,27.10
2017-06-23T16:24:49.039Z,27.00
2017-06-23T16:27:17.315Z,27.00
2017-06-23T16:29:46.734Z,27.10
2017-06-23T16:32:15.291Z,27.00
2017-06-23T16:34:43.574Z,27.00
2017-06-23T16:37:11.847Z,26.90
2017-06-23T16:39:41.955Z,26.90
2017-06-23T16:49:38.827Z,26.60
2017-06-23T16:52:08.631Z,26.70
2017-06-23T16:54:38.095Z,26.60
2017-06-23T16:59:36.323Z,26.50
2017-06-23T17:04:34.211Z,26.40
2017-06-23T17:09:32.439Z,26.40
2017-06-23T17:12:00.720Z,26.50
2017-06-23T17:14:29.002Z,26.50
2017-06-23T17:16:57.330Z,26.50
2017-06-23T17:19:25.626Z,26.50
2017-06-23T17:21:53.945Z,26.60
2017-06-23T17:26:52.247Z,26.50
2017-06-23T17:31:50.494Z,26.20
2017-06-23T17:34:19.547Z,26.10
2017-06-23T17:36:47.838Z,26.00
2017-06-23T17:39:16.161Z,25.90
2017-06-23T17:41:44.438Z,25.80
2017-06-23T17:44:12.716Z,25.80
2017-06-23T17:49:12.271Z,25.70
2017-06-23T17:51:40.577Z,25.70
2017-06-23T17:54:08.929Z,25.70
2017-06-23T17:56:37.225Z,25.70
2017-06-23T17:59:05.526Z,25.70
2017-06-23T18:01:34.032Z,25.70
2017-06-23T18:04:03.441Z,25.70
2017-06-23T18:06:31.720Z,25.70
2017-06-23T18:11:29.987Z,25.60
2017-06-23T18:16:28.582Z,25.70
2017-06-23T18:18:57.628Z,25.70
2017-06-23T18:23:55.855Z,25.70
2017-06-23T18:26:24.156Z,25.70
2017-06-23T18:28:52.839Z,25.70
2017-06-23T18:31:21.163Z,25.70
2017-06-23T18:33:50.957Z,25.70
2017-06-23T18:36:19.632Z,25.70
2017-06-23T18:38:49.467Z,25.60
2017-06-23T18:41:17.747Z,25.60
2017-06-23T18:43:46.027Z,25.50
2017-06-23T18:46:16.278Z,25.50
2017-06-23T18:51:14.071Z,25.40
2017-06-23T18:53:43.155Z,25.40
2017-06-23T18:56:11.435Z,25.40
2017-06-23T19:01:09.673Z,25.40
2017-06-23T19:03:37.964Z,25.30
2017-06-23T19:06:06.286Z,25.20
2017-06-23T19:08:34.661Z,25.20
2017-06-23T19:11:04.091Z,25.20
2017-06-23T19:13:32.371Z,25.10
2017-06-23T19:16:01.475Z,25.00
2017-06-23T19:18:30.517Z,25.00
2017-06-23T19:20:58.791Z,25.00
2017-06-23T19:23:28.327Z,25.00
2017-06-23T19:28:27.259Z,24.90
2017-06-23T19:33:25.883Z,24.90
2017-06-23T19:38:24.937Z,24.80
2017-06-23T19:40:53.638Z,24.80
2017-06-23T19:43:22.686Z,24.70
2017-06-23T19:45:51.791Z,24.70
2017-06-23T19:48:20.071Z,24.60
2017-06-23T19:50:49.855Z,24.60
2017-06-23T19:53:18.210Z,24.60
2017-06-23T19:55:47.251Z,24.60
2017-06-23T19:58:16.295Z,24.50
2017-06-23T20:00:44.651Z,24.50
2017-06-23T20:03:12.939Z,24.50
2017-06-23T20:05:42.722Z,24.40
2017-06-23T20:08:11.051Z,24.40
2017-06-23T20:10:39.353Z,24.30
2017-06-23T20:18:07.200Z,24.20
2017-06-23T20:23:05.527Z,24.10
2017-06-23T20:25:33.849Z,24.10
2017-06-23T20:28:02.917Z,24.00
2017-06-23T20:30:31.636Z,24.00
2017-06-23T20:32:59.918Z,24.00
2017-06-23T20:35:28.195Z,23.90
2017-06-23T20:37:56.527Z,23.90
2017-06-23T20:40:24.835Z,23.80
2017-06-23T20:42:53.139Z,23.80
2017-06-23T20:45:21.463Z,23.70
2017-06-23T20:47:50.507Z,23.70
2017-06-23T20:50:18.791Z,23.60
2017-06-23T20:52:47.120Z,23.50
2017-06-23T20:55:15.410Z,23.50
2017-06-23T20:57:43.695Z,23.40
2017-06-23T21:00:13.223Z,23.40
2017-06-23T21:02:42.267Z,23.30
2017-06-23T21:05:11.329Z,23.30
2017-06-23T21:07:39.679Z,23.20
2017-06-23T21:10:07.971Z,23.20
2017-06-23T21:12:36.289Z,23.10
2017-06-23T21:15:05.772Z,23.10
2017-06-23T21:17:34.084Z,23.00
2017-06-23T21:20:02.388Z,23.00
2017-06-23T21:22:30.715Z,22.90
2017-06-23T21:24:58.999Z,22.90
2017-06-23T21:27:27.283Z,22.80
2017-06-23T21:29:56.738Z,22.80
2017-06-23T21:32:25.035Z,22.70
2017-06-23T21:34:53.347Z,22.70
2017-06-23T21:39:51.607Z,22.50
2017-06-23T21:42:21.019Z,22.50
2017-06-23T21:44:50.139Z,22.40
2017-06-23T21:49:49.051Z,22.30
2017-06-23T21:52:17.375Z,22.20
2017-06-23T21:54:45.662Z,22.20
2017-06-23T21:57:13.940Z,22.10
2017-06-23T21:59:43.771Z,22.10
2017-06-23T22:02:12.048Z,22.00
2017-06-23T22:04:40.343Z,22.00
2017-06-23T22:07:10.229Z,22.00
2017-06-23T22:09:38.539Z,22.00
2017-06-23T22:12:06.834Z,22.00
2017-06-23T22:14:35.195Z,22.00
2017-06-23T22:17:03.468Z,21.90
2017-06-23T22:19:32.507Z,21.90
2017-06-23T22:22:01.867Z,21.80
2017-06-23T22:24:30.547Z,21.70
2017-06-23T22:26:58.831Z,21.70
2017-06-23T22:29:27.158Z,21.70
2017-06-23T22:31:56.943Z,21.60
2017-06-23T22:34:25.251Z,21.60
2017-06-23T22:39:23.251Z,21.40
2017-06-23T22:41:51.527Z,21.40
2017-06-23T22:44:20.791Z,21.30
2017-06-23T22:46:49.833Z,21.30
2017-06-23T22:49:18.114Z,21.20
2017-06-23T22:51:48.459Z,21.20
2017-06-23T22:54:16.746Z,21.20
2017-06-23T22:56:45.027Z,21.20
2017-06-23T22:59:13.351Z,21.20
2017-06-23T23:01:41.627Z,21.10
2017-06-23T23:04:10.688Z,21.10
2017-06-23T23:09:08.539Z,20.90
2017-06-23T23:14:06.425Z,20.90
2017-06-23T23:16:35.163Z,20.80
2017-06-23T23:19:03.459Z,20.80
2017-06-23T23:21:31.789Z,20.70
2017-06-23T23:24:00.067Z,20.70
2017-06-23T23:26:28.347Z,20.60
2017-06-23T23:28:56.818Z,20.60
2017-06-23T23:31:25.871Z,20.60
2017-06-23T23:33:54.934Z,20.60
2017-06-23T23:36:24.403Z,20.60
2017-06-23T23:38:52.685Z,20.60
2017-06-23T23:41:20.969Z,20.60
2017-06-23T23:43:49.382Z,20.50
2017-06-23T23:46:17.760Z,20.40
2017-06-23T23:48:46.435Z,20.40
2017-06-23T23:51:14.758Z,20.30
2017-06-23T23:56:12.922Z,20.20
2017-06-23T23:58:41.243Z,20.20
